createdAt,value
2022-08-18T00:01:09.186Z,0.88715
2022-08-18T00:06:11.169Z,0
2022-08-18T00:11:13.137Z,0.88715
2022-08-18T00:16:14.904Z,0
2022-08-18T00:21:17.289Z,0
2022-08-18T00:26:19.145Z,0
2022-08-18T00:31:20.894Z,0
2022-08-18T00:36:22.892Z,0
2022-08-18T00:41:24.786Z,0
2022-08-18T00:46:26.523Z,0
2022-08-18T00:51:28.731Z,0.88715
2022-08-18T00:56:30.533Z,0.88715
2022-08-18T01:01:32.298Z,0.88715
2022-08-18T01:06:34.197Z,0
2022-08-18T01:11:35.971Z,0
2022-08-18T01:16:37.737Z,0.88715
2022-08-18T01:21:39.611Z,0
2022-08-18T01:26:44.153Z,0.88715
2022-08-18T01:31:54.282Z,0.88715
2022-08-18T01:36:57.125Z,0.88715
2022-08-18T01:41:58.748Z,0.88715
2022-08-18T01:47:00.424Z,0
2022-08-18T01:52:02.384Z,0
2022-08-18T01:57:03.867Z,0
2022-08-18T02:02:05.564Z,0.88715
2022-08-18T02:07:07.501Z,0.88715
2022-08-18T02:12:09.395Z,0
2022-08-18T02:17:11.098Z,0
2022-08-18T02:22:13.123Z,0
2022-08-18T02:27:14.548Z,0
2022-08-18T02:32:16.108Z,0
2022-08-18T02:37:17.565Z,0.88715
2022-08-18T02:42:19.107Z,0
2022-08-18T02:47:20.547Z,0.88715
2022-08-18T02:52:22.417Z,0
2022-08-18T02:57:23.822Z,0
2022-08-18T03:02:25.359Z,0
2022-08-18T03:07:26.851Z,0
2022-08-18T03:12:28.378Z,0.88715
2022-08-18T03:17:29.806Z,0.88715
2022-08-18T03:22:31.502Z,0.88715
2022-08-18T03:27:33.875Z,0
2022-08-18T03:32:35.502Z,0.88715
2022-08-18T03:37:37.505Z,0
2022-08-18T03:42:38.943Z,0
2022-08-18T03:47:40.414Z,0
2022-08-18T03:52:42.359Z,0
2022-08-18T03:57:43.834Z,0.88715
2022-08-18T04:02:45.553Z,0.88715
2022-08-18T04:07:47.336Z,0.88715
2022-08-18T04:12:48.937Z,1.16185
2022-08-18T04:17:56.193Z,1.53075
2022-08-18T04:23:08.557Z,3.24595
2022-08-18T04:28:10.322Z,4.5628
2022-08-18T04:33:12.089Z,19.27225
2022-08-18T04:38:14.101Z,35.483
2022-08-18T04:43:15.999Z,62.7589
2022-08-18T04:48:17.744Z,100.5466
2022-08-18T04:53:20.203Z,122.38215
2022-08-18T04:58:22.292Z,165.8498
2022-08-18T05:03:24.120Z,197.82825
2022-08-18T05:08:26.166Z,230.59965
2022-08-18T05:13:27.951Z,262.2092
2022-08-18T05:18:30.047Z,287.7699
2022-08-18T05:23:33.497Z,313.6995
2022-08-18T05:28:35.284Z,333.0269
2022-08-18T05:33:37.065Z,363.1247
2022-08-18T05:38:39.074Z,396.09955
2022-08-18T05:43:51.548Z,434.8285
2022-08-18T05:48:54.076Z,457.2174
2022-08-18T05:53:56.286Z,468.67045
2022-08-18T05:58:57.909Z,483.24015
2022-08-18T06:03:59.597Z,506.86505
2022-08-18T06:09:01.212Z,530.61925
2022-08-18T06:14:03.154Z,581.8148
2022-08-18T06:19:04.917Z,613.81225
2022-08-18T06:24:06.853Z,656.3405
2022-08-18T06:29:08.588Z,694.2765
2022-08-18T06:34:10.470Z,732.2125
2022-08-18T06:39:12.514Z,761.88625
2022-08-18T06:44:14.158Z,782.68925
2022-08-18T06:49:15.814Z,800.79965
2022-08-18T06:54:17.791Z,829.18225
2022-08-18T06:59:19.586Z,851.1471
2022-08-18T07:04:21.361Z,869.9953
2022-08-18T07:09:23.172Z,886.33535
2022-08-18T07:14:24.629Z,915.82465
2022-08-18T07:19:26.410Z,940.4821
2022-08-18T07:24:28.763Z,965.50845
2022-08-18T07:29:30.649Z,988.2111
2022-08-18T07:34:32.415Z,1013.7908
2022-08-18T07:39:34.250Z,1037.4157
2022-08-18T07:44:36.039Z,1067.1636
2022-08-18T07:49:46.099Z,1079.37345
2022-08-18T07:55:01.819Z,1108.8266
2022-08-18T08:00:03.541Z,1127.03015
2022-08-18T08:05:05.228Z,1175.62625
2022-08-18T08:10:08.893Z,1208.1409
2022-08-18T08:15:10.666Z,1223.78115
2022-08-18T08:20:12.126Z,1239.84545
2022-08-18T08:25:42.909Z,1267.842
2022-08-18T08:30:47.312Z,1324.147
2022-08-18T08:35:50.379Z,1350.42835
2022-08-18T08:40:52.364Z,1373.22415
2022-08-18T08:45:53.852Z,1418.88805
2022-08-18T08:50:55.386Z,1439.7842
2022-08-18T08:56:02.203Z,1475.96885
2022-08-18T09:01:04.227Z,1519.8624
2022-08-18T09:06:05.821Z,1531.94295
2022-08-18T09:11:07.411Z,1587.0861
2022-08-18T09:16:12.263Z,1603.5193
2022-08-18T09:21:15.595Z,1643.11535
2022-08-18T09:26:17.452Z,1694.4592
2022-08-18T09:31:19.540Z,1732.4142
2022-08-18T09:36:21.556Z,1771.03285
2022-08-18T09:41:27.854Z,1804.8748
2022-08-18T09:46:33.202Z,1833.11095
2022-08-18T09:51:34.929Z,1882.42585
2022-08-18T09:56:37.384Z,1913.8338
2022-08-18T10:01:56.054Z,1960.16135
2022-08-18T10:06:58.729Z,1980.1904
2022-08-18T10:12:01.622Z,2044.97825
2022-08-18T10:17:23.509Z,2071.66465
2022-08-18T10:22:35.183Z,2114.0636
2022-08-18T10:27:37.680Z,2161.7926
2022-08-18T10:32:39.578Z,2188.40485
2022-08-18T10:37:41.188Z,2246.90425
2022-08-18T10:42:45.167Z,2280.0997
2022-08-18T10:47:49.022Z,2312.59535
2022-08-18T10:52:54.460Z,2366.8334
2022-08-18T10:58:19.012Z,2409.3978
2022-08-18T11:03:50.257Z,2453.4378
2022-08-18T11:08:55.023Z,2498.9344
2022-08-18T11:13:59.325Z,2508.8377
2022-08-18T11:19:01.234Z,2540.94545
2022-08-18T11:24:03.161Z,2556.10465
2022-08-18T11:29:05.536Z,2588.00895
2022-08-18T11:34:07.484Z,2619.45305
2022-08-18T11:39:09.398Z,2598.88965
2022-08-18T11:44:11.413Z,2630.79395
2022-08-18T11:49:13.224Z,2680.55005
2022-08-18T11:54:17.610Z,2714.0764
2022-08-18T11:59:19.741Z,2709.31685
2022-08-18T12:04:21.734Z,2694.0645
2022-08-18T12:09:45.251Z,2683.09065
2022-08-18T12:15:17.116Z,2674.49565
2022-08-18T12:20:19.722Z,2692.78865
2022-08-18T13:09:54.288Z,2457.4049
2022-08-18T13:14:56.035Z,2410.22925
2022-08-18T13:19:59.633Z,2369.7851
2022-08-18T13:25:03.988Z,2302.80285
2022-08-18T13:30:30.269Z,2246.27725
2022-08-18T13:35:37.884Z,2191.57715
2022-08-18T13:40:47.135Z,2112.1093
2022-08-18T13:45:53.237Z,2044.02035
2022-08-18T13:50:57.704Z,1978.624
2022-08-18T13:55:59.627Z,1914.8877
2022-08-18T14:01:16.248Z,1833.06
2022-08-18T14:06:39.719Z,1766.81555
2022-08-18T14:11:53.651Z,1691.33145
2022-08-18T14:16:55.529Z,1627.0418
2022-08-18T14:21:58.589Z,1550.02695
2022-08-18T14:27:00.049Z,1451.54545
2022-08-18T14:32:02.546Z,1371.04505
2022-08-18T14:37:04.435Z,1270.47945
2022-08-18T14:42:06.591Z,1160.50875
2022-08-18T14:47:10.027Z,1013.8932
2022-08-18T14:52:14.481Z,860.54615
2022-08-18T14:57:16.630Z,701.9432
2022-08-18T15:02:18.487Z,559.34755
2022-08-18T15:07:23.758Z,425.25375
2022-08-18T15:12:26.132Z,306.55875
2022-08-18T15:17:28.093Z,212.55615
2022-08-18T15:22:31.381Z,166.63165
2022-08-18T15:27:42.532Z,121.47755
2022-08-18T15:32:44.958Z,100.6416
2022-08-18T15:37:46.673Z,86.2735
2022-08-18T15:42:48.547Z,55.069
2022-08-18T15:47:50.614Z,29.6186
2022-08-18T15:57:57.091Z,5.2739
2022-08-18T16:02:59.959Z,3.3184
2022-08-18T16:08:01.454Z,0.5333
2022-08-18T16:13:03.403Z,1.16185
2022-08-18T16:18:05.124Z,0.88715
2022-08-18T16:23:06.838Z,0.88715
2022-08-18T16:28:08.494Z,0.88715
2022-08-18T16:33:09.938Z,0.88715
2022-08-18T16:38:11.805Z,0
2022-08-18T16:43:13.541Z,0.88715
2022-08-18T16:48:16.909Z,0
2022-08-18T16:53:18.544Z,0
2022-08-18T16:58:20.459Z,0.88715
2022-08-18T17:03:22.402Z,0.88715
2022-08-18T17:08:24.160Z,0
2022-08-18T17:13:26.052Z,0
2022-08-18T17:18:27.934Z,0
2022-08-18T17:23:29.663Z,0
2022-08-18T17:28:31.435Z,0.88715
2022-08-18T17:33:37.130Z,0
2022-08-18T17:38:38.906Z,0.88715
2022-08-18T17:48:42.884Z,0
2022-08-18T17:53:45.951Z,0
2022-08-18T17:58:47.661Z,0.88715
2022-08-18T18:03:49.137Z,0
2022-08-18T18:08:50.771Z,0
2022-08-18T18:13:52.584Z,0.88715
2022-08-18T18:18:54.087Z,0
2022-08-18T18:24:01.588Z,0
2022-08-18T18:29:06.257Z,0
2022-08-18T18:34:27.657Z,0
2022-08-18T18:39:34.254Z,0
2022-08-18T18:44:36.333Z,0
2022-08-18T18:49:38.006Z,0
2022-08-18T18:54:39.566Z,0
2022-08-18T18:59:41.111Z,0.88715
2022-08-18T19:04:42.624Z,0
2022-08-18T19:09:46.208Z,0.88715
2022-08-18T19:14:57.644Z,0
2022-08-18T19:20:01.871Z,0.88715
2022-08-18T19:25:03.342Z,0.88715
2022-08-18T19:30:05.053Z,0.88715
2022-08-18T19:35:12.177Z,0
2022-08-18T19:40:14.056Z,0
2022-08-18T19:45:17.272Z,0
2022-08-18T19:50:19.037Z,0
2022-08-18T19:55:20.529Z,0
2022-08-18T20:00:22.182Z,0
2022-08-18T20:05:23.629Z,0
2022-08-18T20:10:25.086Z,0.88715
2022-08-18T20:15:27.140Z,0.88715
2022-08-18T20:20:29.183Z,0.88715
2022-08-18T20:25:30.997Z,0.88715
2022-08-18T20:30:32.972Z,0.88715
2022-08-18T20:35:34.871Z,0
2022-08-18T20:40:36.679Z,0
2022-08-18T20:45:42.535Z,0.88715
2022-08-18T20:50:47.646Z,0
2022-08-18T20:55:49.190Z,0
2022-08-18T21:00:54.823Z,0
2022-08-18T21:05:56.449Z,0.88715
2022-08-18T21:10:57.872Z,0
2022-08-18T21:15:59.539Z,0.88715
2022-08-18T21:21:01.115Z,0
2022-08-18T21:26:02.602Z,0
2022-08-18T21:31:42.838Z,0
2022-08-18T21:36:46.019Z,0.88715
2022-08-18T21:41:47.764Z,0
2022-08-18T21:46:49.796Z,0
2022-08-18T21:51:51.256Z,0
2022-08-18T21:56:52.725Z,0
2022-08-18T22:01:54.426Z,0
2022-08-18T22:06:56.176Z,0
2022-08-18T22:12:01.107Z,0
2022-08-18T22:17:04.205Z,0
2022-08-18T22:22:05.605Z,0
2022-08-18T22:27:07.392Z,0
2022-08-18T22:32:09.296Z,0
2022-08-18T22:37:11.040Z,0
2022-08-18T22:42:12.841Z,0.88715
2022-08-18T22:47:14.958Z,0
2022-08-18T22:52:16.755Z,0.88715
2022-08-18T22:57:18.603Z,0.88715
2022-08-18T23:02:25.835Z,0.88715
2022-08-18T23:07:27.630Z,0
2022-08-18T23:12:29.398Z,0
2022-08-18T23:17:31.363Z,0
2022-08-18T23:22:33.138Z,0
2022-08-18T23:27:34.922Z,0
2022-08-18T23:32:36.511Z,0.88715
2022-08-18T23:37:38.385Z,0
2022-08-18T23:42:40.148Z,0.88715
2022-08-18T23:47:42.573Z,0.88715
2022-08-18T23:52:44.362Z,0
2022-08-18T23:57:49.159Z,0
